Farley, Missouri
Current Conditions -  °F | °C
As of 7:53 AM on Thursday 27 Nov 2014 (Local Time) from KMCI Reporting Station
Overcast Overcast  
Wind Chill: 18°   Ceiling: 1300
Heat Index: 24°   Visibility: 10mi
Dew Point: 19°   Wind: 5mph
Humidity: 81%   Direction: 10°N
Pressure: 30.51"   Gusts: NA
Location:  39.28°N, 94.83°W
Report Text: KMCI 271353Z 01004KT 10SM OVC013 M04/M07 A3051 RMK AO2 SLP342 T10441072
Loading
Personal Weather Stations






























Interactive Weather Map New forecast layout! Learn more

10-Day Weather Forecast

Advertisements
Track Severe Weather on mobile